Friday, November 17, 2017, 2:33 PM EST
Back to Local

KJST, Johnstown-cambria Co Airport

Location: Johnstown, PA, United States Lat: 40.317
Local Time: 2:33 PM EST (19:33 GMT) Lon: -78.833
Time Zone: US/Eastern Elev: 2283 ft

Show me the last for .
Show Decoded

2017-11-17 13:54 METAR KJST 171854Z AUTO 30007KT 10SM CLR 04/M04 A3013 RMK AO2 SLP221 T00391039 =
2017-11-17 12:54 METAR KJST 171754Z AUTO 29009KT 10SM CLR 03/M03 A3014 RMK AO2 SLP226 T00331033
                 10033 21011 58019 =
2017-11-17 11:54 METAR KJST 171654Z AUTO 30008KT 10SM CLR 02/M03 A3017 RMK AO2 SLP236 T00221033 =
2017-11-17 10:54 METAR KJST 171554Z AUTO 29013KT 10SM SCT019 02/M03 A3020 RMK AO2 SLP250
                 T00171033 =
2017-11-17 09:54 METAR KJST 171454Z AUTO 29011KT 10SM OVC017 00/M04 A3020 RMK AO2 SLP251
                 T00001039 51017 =
2017-11-17 08:54 METAR KJST 171354Z AUTO 28010KT 10SM OVC016 M01/M03 A3019 RMK AO2 SLP248
                 T10061033 =
2017-11-17 07:54 METAR KJST 171254Z AUTO 29010KT 10SM OVC016 M01/M04 A3017 RMK AO2 SLP241
                 T10111039 =
2017-11-17 07:40 METAR KJST 171240Z AUTO 31015KT 10SM OVC016 M01/M04 A3017 RMK AO2 T10111039 =
2017-11-17 07:21 METAR KJST 171221Z AUTO 29008KT 10SM OVC014 M01/M04 A3016 RMK AO2 T10111039 =
2017-11-17 06:54 METAR KJST 171154Z AUTO 30010KT 10SM OVC015 M01/M04 A3015 RMK AO2 SLP234 60000
                 70004 T10111039 10006 21011 53011 =
2017-11-17 06:06 METAR KJST 171106Z AUTO 31015G20KT 10SM OVC015 M01/M03 A3013 RMK AO2 T10061033 =
2017-11-17 05:54 METAR KJST 171054Z AUTO 32013G20KT 10SM OVC014 M01/M03 A3013 RMK AO2 SLP227
                 T10061033 =
2017-11-17 04:54 METAR KJST 170954Z AUTO 32013KT 10SM SCT007 BKN012 OVC017 M01/M02 A3012 RMK AO2
                 SNE0858B26E45 SLP223 P0000 T10061022 =
2017-11-17 04:49 METAR KJST 170949Z AUTO 32011KT 9SM SCT008 BKN012 OVC017 M01/M02 A3012 RMK AO2
                 SNE0858B26E45 P0000 =
2017-11-17 04:35 METAR KJST 170935Z AUTO 32011KT 3SM -SN BR BKN008 OVC015 M01/M02 A3012 RMK AO2
                 SNE0858B26 CIG 006V011 P0000 T10061017 =
2017-11-17 04:26 METAR KJST 170926Z AUTO 32012KT 6SM -SN BR BKN010 OVC017 M01/M02 A3011 RMK AO2
                 SNE0858B26 CIG 007V012 P0000 T10061017 =
2017-11-17 03:54 METAR KJST 170854Z AUTO 32013G19KT 5SM -SN BR OVC006 M01/M02 A3011 RMK AO2
                 SNB0757 SLP219 P0000 60000 T10061017 53005 =
2017-11-17 03:32 METAR KJST 170832Z AUTO 31011KT 2SM -SN BR BKN007 OVC011 M01/M01 A3011 RMK AO2
                 SNB0757 CIG 005V010 P0000 T10061011 =
2017-11-17 03:23 METAR KJST 170823Z AUTO 32011KT 1 3/4SM -SN BR BKN007 OVC013 00/M01 A3011 RMK
                 AO2 SNB0757 CIG 005V010 P0000 T00001011 =
2017-11-17 03:10 METAR KJST 170810Z AUTO 31014KT 2 1/2SM -SN BR BKN012 OVC017 00/M02 A3011 RMK
                 AO2 SNB0757 P0000 T00001017 =
2017-11-17 02:54 METAR KJST 170754Z AUTO 30015G26KT 10SM OVC016 01/M02 A3010 RMK AO2 PK WND
                 31028/0722 SLP214 T00061022 =
2017-11-17 01:54 METAR KJST 170654Z AUTO 29023G28KT 10SM SCT013 OVC020 01/M02 A3009 RMK AO2 PK
                 WND 29028/0652 SLP212 T00061022 =
2017-11-17 00:54 METAR KJST 170554Z AUTO 28011G20KT 10SM BKN010 OVC014 01/M01 A3009 RMK AO2 CIG
                 007V012 SLP211 60001 T00061011 10006 20000 53003 =
2017-11-17 00:42 METAR KJST 170542Z AUTO 28014G20KT 10SM BKN010 OVC014 01/M01 A3009 RMK AO2 CIG
                 008V012 T00061011 =
2017-11-17 00:20 METAR KJST 170520Z AUTO 29014KT 10SM BKN008 OVC012 01/M01 A3009 RMK AO2 CIG
                 007V011 T00061011 =
2017-11-16 23:54 METAR KJST 170454Z AUTO 28012KT 10SM BKN012 OVC017 01/M01 A3009 RMK AO2 SLP207
                 T00061011 400670000 =
2017-11-16 23:36 METAR KJST 170436Z AUTO 28012G20KT 10SM BKN014 OVC022 01/M01 A3008 RMK AO2
                 T00061011 =
2017-11-16 23:24 METAR KJST 170424Z AUTO 27015G19KT 10SM BKN016 BKN024 OVC033 01/M01 A3008 RMK
                 AO2 T00061011 =
2017-11-16 22:54 METAR KJST 170354Z AUTO 28010KT 9SM BKN012 BKN019 OVC028 01/M01 A3008 RMK AO2
                 SNB36E47 SLP205 P0000 T00061011 =
2017-11-16 21:54 METAR KJST 170254Z AUTO 26011KT 10SM OVC012 01/M01 A3008 RMK AO2 SLP203 60001
                 T00061011 53009 =
2017-11-16 21:02 METAR KJST 170202Z AUTO 29009KT 10SM OVC010 01/M01 A3007 RMK AO2 CIG 008V014
                 T00061011 =
2017-11-16 20:54 METAR KJST 170154Z AUTO 27014G18KT 10SM OVC009 01/M01 A3007 RMK AO2 SNE0057 CIG
                 008V015 SLP198 P0000 T00061006 =
2017-11-16 19:54 METAR KJST 170054Z AUTO 26011G20KT 7SM -SN BKN005 BKN012 OVC032 01/M01 A3005 RMK
                 AO2 UPB2358E00B44E47SNE2358B10E44B47 CIG 003V008 SLP195 P0001 T00061006 =
2017-11-16 19:41 METAR KJST 170041Z AUTO 27017G24KT 3SM -SN BR OVC005 00/M01 A3005 RMK AO2
                 UPB2358E00SNE2358B10 CIG 003V007 P0001 T00001006 =
2017-11-16 19:32 METAR KJST 170032Z AUTO 28012G20KT 1 3/4SM -SN BR BKN005 OVC010 01/M01 A3005 RMK
                 AO2 UPB2358E00SNE2358B10 CIG 004V007 P0001 T00061006 =
2017-11-16 18:54 METAR KJST 162354Z AUTO 28011KT 5SM -SN BR OVC009 01/M01 A3005 RMK AO2
                 FZRAB20E38SNB38 CIG 005V012 SLP191 P0000 60000 I1001 I6001 T00061006 10028 20006
                 53016 =
2017-11-16 18:44 METAR KJST 162344Z AUTO 29012KT 4SM -SN BR OVC009 01/M01 A3004 RMK AO2
                 FZRAB20E38SNB38 CIG 006V012 P0000 I1001 T00061006 =
2017-11-16 18:35 METAR KJST 162335Z AUTO 29009KT 7SM -FZRA OVC009 01/M01 A3005 RMK AO2 FZRAB20
                 CIG 007V012 P0000 I1001 T00061006 =
2017-11-16 18:26 METAR KJST 162326Z AUTO 26009KT 6SM -FZRA BR OVC010 01/M01 A3004 RMK AO2 FZRAB20
                 CIG 008V012 P0000 I1001 T00061011 =
2017-11-16 18:06 METAR KJST 162306Z AUTO 26010KT 10SM OVC010 01/M01 A3003 RMK AO2 CIG 008V013
                 T00061011 =
2017-11-16 17:54 METAR KJST 162254Z AUTO 26011KT 10SM OVC009 01/M01 A3003 RMK AO2
                 RAB2155E08B33E42FZRAB08E17 CIG 008V015 SLP187 P0000 I1000 T00061011 =
2017-11-16 17:23 METAR KJST 162223Z AUTO 27009KT 10SM OVC008 01/M01 A3002 RMK AO2
                 RAB2155E08FZRAB08E17 CIG 007V012 P0000 I1000 T00061011 =
2017-11-16 17:14 METAR KJST 162214Z AUTO 28009KT 9SM -FZRA OVC009 01/M01 A3002 RMK AO2
                 RAB2155E08FZRAB08 P0000 I1000 T00061006 =
2017-11-16 17:04 METAR KJST 162204Z AUTO 26011KT 8SM -RA BKN009 OVC012 01/M01 A3002 RMK AO2
                 RAB2155 P0000 T00061011 =
2017-11-16 16:54 METAR KJST 162154Z AUTO 27011KT 8SM OVC011 01/M01 A3001 RMK AO2 CIG 008V012
                 SLP179 T00061011 =
2017-11-16 15:54 METAR KJST 162054Z AUTO 29012G22KT 7SM OVC012 01/M01 A3000 RMK AO2 SLP174
                 T00061011 53014 =
2017-11-16 15:34 METAR KJST 162034Z AUTO 27010KT 10SM OVC014 01/M02 A2999 RMK AO2 T00111017 =
2017-11-16 14:54 METAR KJST 161954Z AUTO 27012G20KT 10SM OVC015 01/M02 A2997 RMK AO2 SLP165
                 T00111017 =

Support USWX by starting your Amazon purchase here.